sensor_id;sensor_type;location;lat;lon;timestamp;temperature;humidity
10278;DHT22;5184;51.376;7.148;2023-06-22T00:02:19;20.80;1.00
10278;DHT22;5184;51.376;7.148;2023-06-22T00:04:46;20.80;1.00
10278;DHT22;5184;51.376;7.148;2023-06-22T00:07:13;20.80;1.00
10278;DHT22;5184;51.376;7.148;2023-06-22T00:09:39;20.80;1.00
10278;DHT22;5184;51.376;7.148;2023-06-22T00:12:06;20.80;1.00
10278;DHT22;5184;51.376;7.148;2023-06-22T00:14:33;20.80;55.50
10278;DHT22;5184;51.376;7.148;2023-06-22T00:17:00;20.80;58.30
10278;DHT22;5184;51.376;7.148;2023-06-22T00:19:26;20.80;75.50
10278;DHT22;5184;51.376;7.148;2023-06-22T00:21:53;20.70;82.70
10278;DHT22;5184;51.376;7.148;2023-06-22T00:24:20;20.70;99.90
10278;DHT22;5184;51.376;7.148;2023-06-22T00:26:48;20.70;99.90
10278;DHT22;5184;51.376;7.148;2023-06-22T00:29:14;20.80;99.90
10278;DHT22;5184;51.376;7.148;2023-06-22T00:31:41;20.70;99.90
10278;DHT22;5184;51.376;7.148;2023-06-22T00:34:08;20.80;99.90
10278;DHT22;5184;51.376;7.148;2023-06-22T00:36:34;20.80;99.90
10278;DHT22;5184;51.376;7.148;2023-06-22T00:39:01;20.80;99.90
10278;DHT22;5184;51.376;7.148;2023-06-22T00:41:27;20.80;99.90
10278;DHT22;5184;51.376;7.148;2023-06-22T00:43:54;20.80;99.90
10278;DHT22;5184;51.376;7.148;2023-06-22T00:46:21;20.70;99.90
10278;DHT22;5184;51.376;7.148;2023-06-22T00:48:48;20.70;99.90
10278;DHT22;5184;51.376;7.148;2023-06-22T00:51:14;20.60;99.90
10278;DHT22;5184;51.376;7.148;2023-06-22T00:53:41;20.70;99.90
10278;DHT22;5184;51.376;7.148;2023-06-22T00:56:08;20.60;1.00
10278;DHT22;5184;51.376;7.148;2023-06-22T00:58:35;20.40;99.90
10278;DHT22;5184;51.376;7.148;2023-06-22T01:01:02;20.40;99.90
10278;DHT22;5184;51.376;7.148;2023-06-22T01:03:30;20.40;99.90
10278;DHT22;5184;51.376;7.148;2023-06-22T01:05:58;20.40;99.90
10278;DHT22;5184;51.376;7.148;2023-06-22T01:08:38;20.40;30.30
10278;DHT22;5184;51.376;7.148;2023-06-22T01:11:07;20.40;1.00
10278;DHT22;5184;51.376;7.148;2023-06-22T01:16:23;20.40;99.90
10278;DHT22;5184;51.376;7.148;2023-06-22T01:18:47;20.40;99.90
10278;DHT22;5184;51.376;7.148;2023-06-22T01:21:15;20.40;99.90
10278;DHT22;5184;51.376;7.148;2023-06-22T01:29:19;20.20;1.00
10278;DHT22;5184;51.376;7.148;2023-06-22T01:31:46;20.20;1.00
10278;DHT22;5184;51.376;7.148;2023-06-22T01:34:12;20.10;1.00
10278;DHT22;5184;51.376;7.148;2023-06-22T01:36:39;20.00;1.00
10278;DHT22;5184;51.376;7.148;2023-06-22T01:39:05;20.10;1.00
10278;DHT22;5184;51.376;7.148;2023-06-22T01:41:34;20.10;1.00
10278;DHT22;5184;51.376;7.148;2023-06-22T01:43:59;20.00;1.00
10278;DHT22;5184;51.376;7.148;2023-06-22T01:46:27;20.00;1.00
10278;DHT22;5184;51.376;7.148;2023-06-22T01:48:54;20.00;1.00
10278;DHT22;5184;51.376;7.148;2023-06-22T01:51:22;19.90;1.00
10278;DHT22;5184;51.376;7.148;2023-06-22T01:53:49;19.90;1.00
10278;DHT22;5184;51.376;7.148;2023-06-22T01:56:17;19.90;1.00
10278;DHT22;5184;51.376;7.148;2023-06-22T01:59:04;19.90;1.00
10278;DHT22;5184;51.376;7.148;2023-06-22T02:01:30;19.90;1.00
10278;DHT22;5184;51.376;7.148;2023-06-22T02:04:02;19.90;1.00
10278;DHT22;5184;51.376;7.148;2023-06-22T02:06:25;19.80;1.00
10278;DHT22;5184;51.376;7.148;2023-06-22T02:08:53;19.90;1.00
10278;DHT22;5184;51.376;7.148;2023-06-22T02:11:18;19.80;1.00
10278;DHT22;5184;51.376;7.148;2023-06-22T02:13:45;19.70;99.90
10278;DHT22;5184;51.376;7.148;2023-06-22T02:16:12;19.70;1.00
10278;DHT22;5184;51.376;7.148;2023-06-22T02:18:39;19.70;1.00
10278;DHT22;5184;51.376;7.148;2023-06-22T02:21:06;19.70;19.10
10278;DHT22;5184;51.376;7.148;2023-06-22T02:23:32;19.60;92.10
10278;DHT22;5184;51.376;7.148;2023-06-22T02:25:59;19.50;99.90
10278;DHT22;5184;51.376;7.148;2023-06-22T02:28:25;19.50;99.90
10278;DHT22;5184;51.376;7.148;2023-06-22T02:30:53;19.40;99.90
10278;DHT22;5184;51.376;7.148;2023-06-22T02:33:20;19.40;99.90
10278;DHT22;5184;51.376;7.148;2023-06-22T02:35:47;19.40;99.90
10278;DHT22;5184;51.376;7.148;2023-06-22T02:38:14;19.40;99.90
10278;DHT22;5184;51.376;7.148;2023-06-22T02:40:41;19.30;99.90
10278;DHT22;5184;51.376;7.148;2023-06-22T02:43:07;19.30;99.90
10278;DHT22;5184;51.376;7.148;2023-06-22T02:45:34;19.30;99.90
10278;DHT22;5184;51.376;7.148;2023-06-22T02:48:00;19.30;99.90
10278;DHT22;5184;51.376;7.148;2023-06-22T02:50:28;19.20;99.90
10278;DHT22;5184;51.376;7.148;2023-06-22T02:52:54;19.20;99.90
10278;DHT22;5184;51.376;7.148;2023-06-22T02:55:21;19.20;1.00
10278;DHT22;5184;51.376;7.148;2023-06-22T02:57:47;19.20;1.00
10278;DHT22;5184;51.376;7.148;2023-06-22T03:00:14;19.20;1.00
10278;DHT22;5184;51.376;7.148;2023-06-22T03:02:45;19.20;1.00
10278;DHT22;5184;51.376;7.148;2023-06-22T03:05:11;19.30;1.00
10278;DHT22;5184;51.376;7.148;2023-06-22T03:07:39;19.30;1.00
10278;DHT22;5184;51.376;7.148;2023-06-22T03:10:06;19.30;1.00
10278;DHT22;5184;51.376;7.148;2023-06-22T03:12:33;19.30;1.00
10278;DHT22;5184;51.376;7.148;2023-06-22T03:14:59;19.50;1.00
10278;DHT22;5184;51.376;7.148;2023-06-22T03:17:26;19.20;1.00
10278;DHT22;5184;51.376;7.148;2023-06-22T03:19:53;19.20;1.00
10278;DHT22;5184;51.376;7.148;2023-06-22T03:22:20;19.10;1.00
10278;DHT22;5184;51.376;7.148;2023-06-22T03:24:46;19.10;95.40
10278;DHT22;5184;51.376;7.148;2023-06-22T03:27:13;19.10;22.60
10278;DHT22;5184;51.376;7.148;2023-06-22T03:29:39;19.10;58.50
10278;DHT22;5184;51.376;7.148;2023-06-22T03:32:06;19.00;67.40
10278;DHT22;5184;51.376;7.148;2023-06-22T03:34:33;19.00;99.90
10278;DHT22;5184;51.376;7.148;2023-06-22T03:37:00;19.00;99.90
10278;DHT22;5184;51.376;7.148;2023-06-22T03:39:26;19.00;99.90
10278;DHT22;5184;51.376;7.148;2023-06-22T03:41:53;19.00;99.90
10278;DHT22;5184;51.376;7.148;2023-06-22T03:44:20;19.10;99.90
10278;DHT22;5184;51.376;7.148;2023-06-22T03:46:47;19.10;56.40
10278;DHT22;5184;51.376;7.148;2023-06-22T03:49:14;19.10;41.80
10278;DHT22;5184;51.376;7.148;2023-06-22T03:51:41;19.00;99.90
10278;DHT22;5184;51.376;7.148;2023-06-22T03:54:07;19.00;99.90
10278;DHT22;5184;51.376;7.148;2023-06-22T03:56:34;19.00;1.00
10278;DHT22;5184;51.376;7.148;2023-06-22T03:59:00;19.00;1.00
10278;DHT22;5184;51.376;7.148;2023-06-22T04:01:28;19.10;1.00
10278;DHT22;5184;51.376;7.148;2023-06-22T04:03:55;19.20;1.00
10278;DHT22;5184;51.376;7.148;2023-06-22T04:06:22;19.20;1.00
10278;DHT22;5184;51.376;7.148;2023-06-22T04:08:50;19.20;1.00
10278;DHT22;5184;51.376;7.148;2023-06-22T04:11:17;19.30;1.00
10278;DHT22;5184;51.376;7.148;2023-06-22T04:13:44;19.30;1.00
10278;DHT22;5184;51.376;7.148;2023-06-22T04:16:10;19.30;1.00
10278;DHT22;5184;51.376;7.148;2023-06-22T04:18:37;19.20;1.00
10278;DHT22;5184;51.376;7.148;2023-06-22T04:21:04;19.20;1.00
10278;DHT22;5184;51.376;7.148;2023-06-22T04:23:30;19.20;1.00
10278;DHT22;5184;51.376;7.148;2023-06-22T04:25:57;19.20;38.90
10278;DHT22;5184;51.376;7.148;2023-06-22T04:28:25;19.20;99.90
10278;DHT22;5184;51.376;7.148;2023-06-22T04:30:52;19.20;99.90
10278;DHT22;5184;51.376;7.148;2023-06-22T04:33:19;19.20;99.90
10278;DHT22;5184;51.376;7.148;2023-06-22T04:35:45;19.20;99.90
10278;DHT22;5184;51.376;7.148;2023-06-22T04:38:12;19.10;99.90
10278;DHT22;5184;51.376;7.148;2023-06-22T04:40:39;19.10;1.00
10278;DHT22;5184;51.376;7.148;2023-06-22T04:43:07;19.10;1.00
10278;DHT22;5184;51.376;7.148;2023-06-22T04:45:34;19.10;1.00
10278;DHT22;5184;51.376;7.148;2023-06-22T04:48:01;19.10;1.00
10278;DHT22;5184;51.376;7.148;2023-06-22T04:50:27;19.10;1.00
10278;DHT22;5184;51.376;7.148;2023-06-22T04:52:54;19.10;40.90
10278;DHT22;5184;51.376;7.148;2023-06-22T04:55:21;19.00;99.90
10278;DHT22;5184;51.376;7.148;2023-06-22T04:57:49;19.00;99.90
10278;DHT22;5184;51.376;7.148;2023-06-22T05:00:17;19.00;99.90
10278;DHT22;5184;51.376;7.148;2023-06-22T05:02:43;19.00;99.90
10278;DHT22;5184;51.376;7.148;2023-06-22T05:05:10;19.00;99.90
10278;DHT22;5184;51.376;7.148;2023-06-22T05:07:36;18.80;99.90
10278;DHT22;5184;51.376;7.148;2023-06-22T05:10:04;18.90;99.90
10278;DHT22;5184;51.376;7.148;2023-06-22T05:12:30;18.90;99.90
10278;DHT22;5184;51.376;7.148;2023-06-22T05:14:57;18.90;1.00
10278;DHT22;5184;51.376;7.148;2023-06-22T05:17:24;19.00;1.00
10278;DHT22;5184;51.376;7.148;2023-06-22T05:19:50;19.00;1.00
10278;DHT22;5184;51.376;7.148;2023-06-22T05:22:18;19.00;1.00
10278;DHT22;5184;51.376;7.148;2023-06-22T05:24:45;19.00;1.00
10278;DHT22;5184;51.376;7.148;2023-06-22T05:27:11;19.00;1.00
10278;DHT22;5184;51.376;7.148;2023-06-22T05:29:38;19.00;1.00
10278;DHT22;5184;51.376;7.148;2023-06-22T05:32:06;19.00;1.00
10278;DHT22;5184;51.376;7.148;2023-06-22T05:34:33;19.00;1.00
10278;DHT22;5184;51.376;7.148;2023-06-22T05:36:59;19.10;1.00
10278;DHT22;5184;51.376;7.148;2023-06-22T05:39:26;19.20;1.00
10278;DHT22;5184;51.376;7.148;2023-06-22T05:41:52;19.20;1.00
10278;DHT22;5184;51.376;7.148;2023-06-22T05:44:20;19.30;1.00
10278;DHT22;5184;51.376;7.148;2023-06-22T05:46:47;19.30;99.90
10278;DHT22;5184;51.376;7.148;2023-06-22T05:49:14;19.30;99.90
10278;DHT22;5184;51.376;7.148;2023-06-22T05:51:41;19.30;99.90
10278;DHT22;5184;51.376;7.148;2023-06-22T05:54:07;19.30;1.00
10278;DHT22;5184;51.376;7.148;2023-06-22T05:56:34;19.30;99.90
10278;DHT22;5184;51.376;7.148;2023-06-22T05:59:01;19.40;1.00
10278;DHT22;5184;51.376;7.148;2023-06-22T06:01:28;19.60;1.00
10278;DHT22;5184;51.376;7.148;2023-06-22T06:03:54;19.40;1.00
10278;DHT22;5184;51.376;7.148;2023-06-22T06:06:21;19.50;99.90
10278;DHT22;5184;51.376;7.148;2023-06-22T06:08:47;19.50;1.00
10278;DHT22;5184;51.376;7.148;2023-06-22T06:11:15;19.50;1.00
10278;DHT22;5184;51.376;7.148;2023-06-22T06:13:41;19.50;1.00
10278;DHT22;5184;51.376;7.148;2023-06-22T06:16:08;19.50;1.00
10278;DHT22;5184;51.376;7.148;2023-06-22T06:18:34;19.60;1.00
10278;DHT22;5184;51.376;7.148;2023-06-22T06:21:01;19.60;1.00
10278;DHT22;5184;51.376;7.148;2023-06-22T06:23:28;19.60;1.00
10278;DHT22;5184;51.376;7.148;2023-06-22T06:25:55;19.80;1.00
10278;DHT22;5184;51.376;7.148;2023-06-22T06:28:22;19.80;1.00
10278;DHT22;5184;51.376;7.148;2023-06-22T06:30:48;19.90;1.00
10278;DHT22;5184;51.376;7.148;2023-06-22T06:33:15;20.00;99.90
10278;DHT22;5184;51.376;7.148;2023-06-22T06:35:42;20.10;99.90
10278;DHT22;5184;51.376;7.148;2023-06-22T06:38:10;20.20;99.90
10278;DHT22;5184;51.376;7.148;2023-06-22T06:40:36;20.20;99.90
10278;DHT22;5184;51.376;7.148;2023-06-22T06:43:03;20.30;99.90
10278;DHT22;5184;51.376;7.148;2023-06-22T06:45:29;20.40;99.90
10278;DHT22;5184;51.376;7.148;2023-06-22T06:47:56;20.40;99.90
10278;DHT22;5184;51.376;7.148;2023-06-22T06:50:23;20.50;1.00
10278;DHT22;5184;51.376;7.148;2023-06-22T06:52:50;20.50;99.90
10278;DHT22;5184;51.376;7.148;2023-06-22T06:55:17;20.60;99.90
10278;DHT22;5184;51.376;7.148;2023-06-22T06:57:44;20.60;99.90
10278;DHT22;5184;51.376;7.148;2023-06-22T07:00:11;20.60;99.90
10278;DHT22;5184;51.376;7.148;2023-06-22T07:02:38;20.50;99.90
10278;DHT22;5184;51.376;7.148;2023-06-22T07:05:05;20.50;99.90
10278;DHT22;5184;51.376;7.148;2023-06-22T07:07:31;20.50;99.90
10278;DHT22;5184;51.376;7.148;2023-06-22T07:09:59;20.40;1.00
10278;DHT22;5184;51.376;7.148;2023-06-22T07:12:25;20.30;1.00
10278;DHT22;5184;51.376;7.148;2023-06-22T07:14:52;20.30;1.00
10278;DHT22;5184;51.376;7.148;2023-06-22T07:17:18;20.30;1.00
10278;DHT22;5184;51.376;7.148;2023-06-22T07:19:46;20.30;99.90
10278;DHT22;5184;51.376;7.148;2023-06-22T07:22:13;20.30;1.00
10278;DHT22;5184;51.376;7.148;2023-06-22T07:24:40;20.30;1.00
10278;DHT22;5184;51.376;7.148;2023-06-22T07:27:07;20.20;1.00
10278;DHT22;5184;51.376;7.148;2023-06-22T07:29:34;20.20;99.00
10278;DHT22;5184;51.376;7.148;2023-06-22T07:32:00;20.10;99.90
10278;DHT22;5184;51.376;7.148;2023-06-22T07:34:28;20.20;99.90
10278;DHT22;5184;51.376;7.148;2023-06-22T07:36:55;20.20;1.00
10278;DHT22;5184;51.376;7.148;2023-06-22T07:39:22;20.20;1.00
10278;DHT22;5184;51.376;7.148;2023-06-22T07:41:49;20.20;1.00
10278;DHT22;5184;51.376;7.148;2023-06-22T07:44:16;20.10;99.90
10278;DHT22;5184;51.376;7.148;2023-06-22T07:46:44;20.10;99.90
10278;DHT22;5184;51.376;7.148;2023-06-22T07:49:10;20.00;99.90
10278;DHT22;5184;51.376;7.148;2023-06-22T07:51:37;20.10;1.00
10278;DHT22;5184;51.376;7.148;2023-06-22T07:54:03;20.10;1.00
10278;DHT22;5184;51.376;7.148;2023-06-22T07:56:31;20.10;1.00
10278;DHT22;5184;51.376;7.148;2023-06-22T07:58:58;20.20;1.00
10278;DHT22;5184;51.376;7.148;2023-06-22T08:01:25;20.20;1.00
10278;DHT22;5184;51.376;7.148;2023-06-22T08:03:52;20.20;1.00
10278;DHT22;5184;51.376;7.148;2023-06-22T08:06:19;20.20;1.00
10278;DHT22;5184;51.376;7.148;2023-06-22T08:08:45;20.20;1.00
10278;DHT22;5184;51.376;7.148;2023-06-22T08:11:12;20.20;1.00
10278;DHT22;5184;51.376;7.148;2023-06-22T08:13:38;20.30;1.00
10278;DHT22;5184;51.376;7.148;2023-06-22T08:16:06;20.30;1.00
10278;DHT22;5184;51.376;7.148;2023-06-22T08:18:32;20.30;1.00
10278;DHT22;5184;51.376;7.148;2023-06-22T08:20:59;20.30;5.30
10278;DHT22;5184;51.376;7.148;2023-06-22T08:23:26;20.30;9.20
10278;DHT22;5184;51.376;7.148;2023-06-22T08:25:52;20.40;84.00
10278;DHT22;5184;51.376;7.148;2023-06-22T08:28:19;20.60;99.90
10278;DHT22;5184;51.376;7.148;2023-06-22T08:30:45;20.70;99.90
10278;DHT22;5184;51.376;7.148;2023-06-22T08:33:12;20.90;1.20
10278;DHT22;5184;51.376;7.148;2023-06-22T08:35:39;21.10;99.90
10278;DHT22;5184;51.376;7.148;2023-06-22T08:38:06;21.10;99.90
10278;DHT22;5184;51.376;7.148;2023-06-22T08:40:33;21.30;99.90
10278;DHT22;5184;51.376;7.148;2023-06-22T08:42:59;21.40;73.90
10278;DHT22;5184;51.376;7.148;2023-06-22T08:45:27;21.50;99.90
10278;DHT22;5184;51.376;7.148;2023-06-22T08:47:54;21.60;98.80
10278;DHT22;5184;51.376;7.148;2023-06-22T08:50:21;21.60;99.90
10278;DHT22;5184;51.376;7.148;2023-06-22T08:52:47;21.70;48.00
10278;DHT22;5184;51.376;7.148;2023-06-22T08:55:14;21.90;99.90
10278;DHT22;5184;51.376;7.148;2023-06-22T08:57:41;22.20;99.90
10278;DHT22;5184;51.376;7.148;2023-06-22T09:00:08;22.30;1.00
10278;DHT22;5184;51.376;7.148;2023-06-22T09:02:35;22.50;99.90
10278;DHT22;5184;51.376;7.148;2023-06-22T09:05:02;22.70;1.00
10278;DHT22;5184;51.376;7.148;2023-06-22T09:07:28;22.90;99.90
10278;DHT22;5184;51.376;7.148;2023-06-22T09:09:55;23.20;1.00
10278;DHT22;5184;51.376;7.148;2023-06-22T09:12:22;23.20;1.00
10278;DHT22;5184;51.376;7.148;2023-06-22T09:14:49;23.30;99.90
10278;DHT22;5184;51.376;7.148;2023-06-22T09:17:15;23.40;99.90
10278;DHT22;5184;51.376;7.148;2023-06-22T09:19:43;23.40;1.00
10278;DHT22;5184;51.376;7.148;2023-06-22T09:22:10;23.30;1.00
10278;DHT22;5184;51.376;7.148;2023-06-22T09:24:37;23.50;1.00
10278;DHT22;5184;51.376;7.148;2023-06-22T09:27:04;23.50;1.00
10278;DHT22;5184;51.376;7.148;2023-06-22T09:29:32;23.60;99.90
10278;DHT22;5184;51.376;7.148;2023-06-22T09:31:58;23.60;99.90
10278;DHT22;5184;51.376;7.148;2023-06-22T09:34:25;23.70;1.00
10278;DHT22;5184;51.376;7.148;2023-06-22T09:36:51;23.70;99.90
10278;DHT22;5184;51.376;7.148;2023-06-22T09:39:19;23.90;96.20
10278;DHT22;5184;51.376;7.148;2023-06-22T09:41:46;24.00;99.90
10278;DHT22;5184;51.376;7.148;2023-06-22T09:44:13;24.00;99.90
10278;DHT22;5184;51.376;7.148;2023-06-22T09:46:39;24.20;1.00
10278;DHT22;5184;51.376;7.148;2023-06-22T09:49:06;24.50;1.00
10278;DHT22;5184;51.376;7.148;2023-06-22T09:51:33;24.80;1.00
10278;DHT22;5184;51.376;7.148;2023-06-22T09:54:01;25.00;99.90
10278;DHT22;5184;51.376;7.148;2023-06-22T09:56:28;25.10;41.20
10278;DHT22;5184;51.376;7.148;2023-06-22T09:58:55;25.10;34.50
10278;DHT22;5184;51.376;7.148;2023-06-22T10:01:21;25.20;99.90
10278;DHT22;5184;51.376;7.148;2023-06-22T10:03:48;25.30;7.60
10278;DHT22;5184;51.376;7.148;2023-06-22T10:06:15;25.50;1.00
10278;DHT22;5184;51.376;7.148;2023-06-22T10:08:42;25.60;1.00
10278;DHT22;5184;51.376;7.148;2023-06-22T10:11:09;25.60;1.00
10278;DHT22;5184;51.376;7.148;2023-06-22T10:13:36;25.70;99.90
10278;DHT22;5184;51.376;7.148;2023-06-22T10:16:03;25.90;99.90
10278;DHT22;5184;51.376;7.148;2023-06-22T10:18:30;25.80;99.90
10278;DHT22;5184;51.376;7.148;2023-06-22T10:20:56;26.00;80.60
10278;DHT22;5184;51.376;7.148;2023-06-22T10:23:24;26.10;1.00
10278;DHT22;5184;51.376;7.148;2023-06-22T10:25:51;26.10;21.90
10278;DHT22;5184;51.376;7.148;2023-06-22T10:28:18;26.10;1.00
10278;DHT22;5184;51.376;7.148;2023-06-22T10:30:45;26.10;1.00
10278;DHT22;5184;51.376;7.148;2023-06-22T10:33:12;26.30;99.90
10278;DHT22;5184;51.376;7.148;2023-06-22T10:35:38;26.40;99.90
10278;DHT22;5184;51.376;7.148;2023-06-22T10:38:05;26.50;99.90
10278;DHT22;5184;51.376;7.148;2023-06-22T10:40:31;26.60;1.00
10278;DHT22;5184;51.376;7.148;2023-06-22T10:42:59;26.50;33.90
10278;DHT22;5184;51.376;7.148;2023-06-22T10:45:25;26.50;18.60
10278;DHT22;5184;51.376;7.148;2023-06-22T10:47:52;26.50;99.90
10278;DHT22;5184;51.376;7.148;2023-06-22T10:50:19;26.50;99.90
10278;DHT22;5184;51.376;7.148;2023-06-22T10:52:46;26.30;99.90
10278;DHT22;5184;51.376;7.148;2023-06-22T10:55:13;26.20;99.90
10278;DHT22;5184;51.376;7.148;2023-06-22T10:57:40;26.20;99.90
10278;DHT22;5184;51.376;7.148;2023-06-22T11:00:07;26.00;99.90
10278;DHT22;5184;51.376;7.148;2023-06-22T11:02:34;25.90;99.90
10278;DHT22;5184;51.376;7.148;2023-06-22T11:05:01;25.70;99.90
10278;DHT22;5184;51.376;7.148;2023-06-22T11:18:06;25.00;1.00
10278;DHT22;5184;51.376;7.148;2023-06-22T11:20:34;24.50;1.00
10278;DHT22;5184;51.376;7.148;2023-06-22T11:23:01;24.40;1.00
10278;DHT22;5184;51.376;7.148;2023-06-22T11:25:27;24.30;1.00
10278;DHT22;5184;51.376;7.148;2023-06-22T11:27:54;24.10;99.90
10278;DHT22;5184;51.376;7.148;2023-06-22T11:30:21;24.00;99.90
10278;DHT22;5184;51.376;7.148;2023-06-22T11:32:48;23.60;99.90
10278;DHT22;5184;51.376;7.148;2023-06-22T11:35:15;23.50;1.00
10278;DHT22;5184;51.376;7.148;2023-06-22T11:37:42;23.50;1.00
10278;DHT22;5184;51.376;7.148;2023-06-22T11:40:09;23.30;1.00
10278;DHT22;5184;51.376;7.148;2023-06-22T11:42:36;23.20;1.00
10278;DHT22;5184;51.376;7.148;2023-06-22T11:45:04;23.10;1.00
10278;DHT22;5184;51.376;7.148;2023-06-22T11:47:30;22.90;91.70
10278;DHT22;5184;51.376;7.148;2023-06-22T11:49:57;22.70;1.00
10278;DHT22;5184;51.376;7.148;2023-06-22T11:52:24;22.70;1.00
10278;DHT22;5184;51.376;7.148;2023-06-22T11:54:52;22.60;6.10
10278;DHT22;5184;51.376;7.148;2023-06-22T11:57:18;22.60;6.10
10278;DHT22;5184;51.376;7.148;2023-06-22T11:59:45;22.60;34.40
10278;DHT22;5184;51.376;7.148;2023-06-22T12:02:11;22.50;99.90
10278;DHT22;5184;51.376;7.148;2023-06-22T12:04:39;22.50;99.90
10278;DHT22;5184;51.376;7.148;2023-06-22T12:07:06;22.50;99.90
10278;DHT22;5184;51.376;7.148;2023-06-22T12:09:33;22.50;99.90
10278;DHT22;5184;51.376;7.148;2023-06-22T12:11:59;22.50;99.90
10278;DHT22;5184;51.376;7.148;2023-06-22T12:14:26;22.60;99.90
10278;DHT22;5184;51.376;7.148;2023-06-22T12:16:53;22.70;99.90
10278;DHT22;5184;51.376;7.148;2023-06-22T12:19:20;22.70;99.90
10278;DHT22;5184;51.376;7.148;2023-06-22T12:21:46;22.70;99.90
10278;DHT22;5184;51.376;7.148;2023-06-22T12:24:13;22.80;99.90
10278;DHT22;5184;51.376;7.148;2023-06-22T12:26:40;22.80;99.90
10278;DHT22;5184;51.376;7.148;2023-06-22T12:29:08;22.80;99.90
10278;DHT22;5184;51.376;7.148;2023-06-22T12:31:35;22.80;99.90
10278;DHT22;5184;51.376;7.148;2023-06-22T12:34:01;22.70;99.90
10278;DHT22;5184;51.376;7.148;2023-06-22T12:36:28;22.70;99.90
10278;DHT22;5184;51.376;7.148;2023-06-22T12:38:55;22.70;99.90
10278;DHT22;5184;51.376;7.148;2023-06-22T12:41:22;22.60;99.90
10278;DHT22;5184;51.376;7.148;2023-06-22T12:43:48;22.60;99.90
10278;DHT22;5184;51.376;7.148;2023-06-22T12:46:16;22.60;99.90
10278;DHT22;5184;51.376;7.148;2023-06-22T12:48:42;22.50;99.90
10278;DHT22;5184;51.376;7.148;2023-06-22T12:51:09;22.40;91.70
10278;DHT22;5184;51.376;7.148;2023-06-22T12:53:35;22.30;19.70
10278;DHT22;5184;51.376;7.148;2023-06-22T12:56:02;22.30;71.90
10278;DHT22;5184;51.376;7.148;2023-06-22T12:58:29;22.30;99.90
10278;DHT22;5184;51.376;7.148;2023-06-22T13:00:55;22.30;99.90
10278;DHT22;5184;51.376;7.148;2023-06-22T13:03:22;22.40;99.90
10278;DHT22;5184;51.376;7.148;2023-06-22T13:05:49;22.50;99.90
10278;DHT22;5184;51.376;7.148;2023-06-22T13:08:16;22.50;99.90
10278;DHT22;5184;51.376;7.148;2023-06-22T13:10:42;22.60;99.90
10278;DHT22;5184;51.376;7.148;2023-06-22T13:13:09;22.80;76.70
10278;DHT22;5184;51.376;7.148;2023-06-22T13:15:36;23.10;1.00
10278;DHT22;5184;51.376;7.148;2023-06-22T13:18:03;23.10;1.00
10278;DHT22;5184;51.376;7.148;2023-06-22T13:20:30;23.20;1.00
10278;DHT22;5184;51.376;7.148;2023-06-22T13:22:56;23.20;99.90
10278;DHT22;5184;51.376;7.148;2023-06-22T13:25:24;23.00;99.90
10278;DHT22;5184;51.376;7.148;2023-06-22T13:27:51;23.00;99.90
10278;DHT22;5184;51.376;7.148;2023-06-22T13:30:17;23.00;99.90
10278;DHT22;5184;51.376;7.148;2023-06-22T13:32:45;23.00;1.00
10278;DHT22;5184;51.376;7.148;2023-06-22T13:35:12;23.00;99.90
10278;DHT22;5184;51.376;7.148;2023-06-22T13:37:39;23.00;99.90
10278;DHT22;5184;51.376;7.148;2023-06-22T13:40:06;23.10;99.90
10278;DHT22;5184;51.376;7.148;2023-06-22T13:42:33;23.10;99.90
10278;DHT22;5184;51.376;7.148;2023-06-22T13:44:59;23.20;99.90
10278;DHT22;5184;51.376;7.148;2023-06-22T13:47:26;23.30;99.90
10278;DHT22;5184;51.376;7.148;2023-06-22T13:49:53;23.40;99.90
10278;DHT22;5184;51.376;7.148;2023-06-22T13:52:19;23.50;99.90
10278;DHT22;5184;51.376;7.148;2023-06-22T13:54:46;23.60;99.90
10278;DHT22;5184;51.376;7.148;2023-06-22T13:57:13;23.70;1.00
10278;DHT22;5184;51.376;7.148;2023-06-22T13:59:41;23.80;1.00
10278;DHT22;5184;51.376;7.148;2023-06-22T14:02:08;23.70;69.80
10278;DHT22;5184;51.376;7.148;2023-06-22T14:04:35;23.70;68.50
10278;DHT22;5184;51.376;7.148;2023-06-22T14:07:01;23.60;1.00
10278;DHT22;5184;51.376;7.148;2023-06-22T14:09:28;23.50;99.90
10278;DHT22;5184;51.376;7.148;2023-06-22T14:11:55;23.20;99.90
10278;DHT22;5184;51.376;7.148;2023-06-22T14:14:22;23.20;99.90
10278;DHT22;5184;51.376;7.148;2023-06-22T14:16:49;23.20;99.90
10278;DHT22;5184;51.376;7.148;2023-06-22T14:19:17;23.10;99.90
10278;DHT22;5184;51.376;7.148;2023-06-22T14:21:43;23.10;99.90
10278;DHT22;5184;51.376;7.148;2023-06-22T14:24:10;23.10;1.00
10278;DHT22;5184;51.376;7.148;2023-06-22T14:26:36;23.10;1.00
10278;DHT22;5184;51.376;7.148;2023-06-22T14:29:03;23.10;99.90
10278;DHT22;5184;51.376;7.148;2023-06-22T14:31:29;22.90;99.90
10278;DHT22;5184;51.376;7.148;2023-06-22T14:33:57;23.10;99.90
10278;DHT22;5184;51.376;7.148;2023-06-22T14:36:24;23.10;99.90
10278;DHT22;5184;51.376;7.148;2023-06-22T14:38:51;23.10;99.90
10278;DHT22;5184;51.376;7.148;2023-06-22T14:41:17;23.00;1.00
10278;DHT22;5184;51.376;7.148;2023-06-22T14:43:46;22.90;1.00
10278;DHT22;5184;51.376;7.148;2023-06-22T14:46:14;22.90;1.00
10278;DHT22;5184;51.376;7.148;2023-06-22T14:48:40;22.70;99.90
10278;DHT22;5184;51.376;7.148;2023-06-22T14:51:07;22.70;99.90
10278;DHT22;5184;51.376;7.148;2023-06-22T14:53:33;22.60;85.90
10278;DHT22;5184;51.376;7.148;2023-06-22T14:56:00;22.60;99.90
10278;DHT22;5184;51.376;7.148;2023-06-22T14:58:28;22.60;99.90
10278;DHT22;5184;51.376;7.148;2023-06-22T15:00:54;22.60;99.90
10278;DHT22;5184;51.376;7.148;2023-06-22T15:03:21;22.60;99.90
10278;DHT22;5184;51.376;7.148;2023-06-22T15:05:48;22.60;1.00
10278;DHT22;5184;51.376;7.148;2023-06-22T15:08:14;22.60;1.00
10278;DHT22;5184;51.376;7.148;2023-06-22T15:10:42;22.60;99.90
10278;DHT22;5184;51.376;7.148;2023-06-22T15:13:09;22.50;99.90
10278;DHT22;5184;51.376;7.148;2023-06-22T15:15:35;22.50;99.90
10278;DHT22;5184;51.376;7.148;2023-06-22T15:18:02;22.50;99.90
10278;DHT22;5184;51.376;7.148;2023-06-22T15:20:29;22.40;99.90
10278;DHT22;5184;51.376;7.148;2023-06-22T15:22:57;22.30;99.90
10278;DHT22;5184;51.376;7.148;2023-06-22T15:25:23;22.30;99.90
10278;DHT22;5184;51.376;7.148;2023-06-22T15:27:50;22.30;99.90
10278;DHT22;5184;51.376;7.148;2023-06-22T15:30:17;22.40;99.90
10278;DHT22;5184;51.376;7.148;2023-06-22T15:32:44;22.10;99.90
10278;DHT22;5184;51.376;7.148;2023-06-22T15:35:11;22.10;1.00
10278;DHT22;5184;51.376;7.148;2023-06-22T15:37:37;22.00;1.00
10278;DHT22;5184;51.376;7.148;2023-06-22T15:40:05;22.00;99.90
10278;DHT22;5184;51.376;7.148;2023-06-22T15:42:32;22.00;99.90
10278;DHT22;5184;51.376;7.148;2023-06-22T15:44:58;21.90;1.00
10278;DHT22;5184;51.376;7.148;2023-06-22T15:47:25;21.90;1.00
10278;DHT22;5184;51.376;7.148;2023-06-22T15:49:52;21.80;99.90
10278;DHT22;5184;51.376;7.148;2023-06-22T15:52:19;21.60;99.90
10278;DHT22;5184;51.376;7.148;2023-06-22T15:54:46;21.50;99.90
10278;DHT22;5184;51.376;7.148;2023-06-22T15:57:13;21.50;99.90
10278;DHT22;5184;51.376;7.148;2023-06-22T15:59:40;21.50;99.90
10278;DHT22;5184;51.376;7.148;2023-06-22T16:02:07;21.40;99.90
10278;DHT22;5184;51.376;7.148;2023-06-22T16:04:33;21.30;99.90
10278;DHT22;5184;51.376;7.148;2023-06-22T16:07:01;21.30;99.90
10278;DHT22;5184;51.376;7.148;2023-06-22T16:09:28;21.30;99.90